createdAt,value
2018-09-21T00:00:09.915Z,16.57
2018-09-21T00:01:09.941Z,16.51
2018-09-21T00:02:09.970Z,16.47
2018-09-21T00:03:09.981Z,16.49
2018-09-21T00:04:10.010Z,16.46
2018-09-21T00:05:10.020Z,16.44
2018-09-21T00:06:10.046Z,16.51
2018-09-21T00:07:10.061Z,16.46
2018-09-21T00:08:10.087Z,16.57
2018-09-21T00:09:10.114Z,16.49
2018-09-21T00:10:10.126Z,16.49
2018-09-21T00:11:10.151Z,16.50
2018-09-21T00:12:10.166Z,16.54
2018-09-21T00:13:10.190Z,16.57
2018-09-21T00:14:10.215Z,16.54
2018-09-21T00:15:10.231Z,16.51
2018-09-21T00:16:10.261Z,16.54
2018-09-21T00:17:10.270Z,16.51
2018-09-21T00:18:10.295Z,16.54
2018-09-21T00:19:10.309Z,16.57
2018-09-21T00:20:10.336Z,16.51
2018-09-21T00:21:10.361Z,16.57
2018-09-21T00:22:10.374Z,16.51
2018-09-21T00:23:10.400Z,16.57
2018-09-21T00:24:10.414Z,16.57
2018-09-21T00:25:10.439Z,16.55
2018-09-21T00:26:10.454Z,16.55
2018-09-21T00:27:10.482Z,16.50
2018-09-21T00:28:10.518Z,16.61
2018-09-21T00:29:10.519Z,16.57
2018-09-21T00:30:10.546Z,16.57
2018-09-21T00:31:10.559Z,16.57
2018-09-21T00:32:10.587Z,16.51
2018-09-21T00:33:10.598Z,16.51
2018-09-21T00:34:10.623Z,16.55
2018-09-21T00:35:10.650Z,16.58
2018-09-21T00:36:10.662Z,16.61
2018-09-21T00:37:10.688Z,16.57
2018-09-21T00:38:10.703Z,16.57
2018-09-21T00:39:10.730Z,16.55
2018-09-21T00:40:10.747Z,16.57
2018-09-21T00:41:10.768Z,16.55
2018-09-21T00:42:10.810Z,16.58
2018-09-21T00:43:10.808Z,16.55
2018-09-21T00:44:10.834Z,16.61
2018-09-21T00:45:10.847Z,16.58
2018-09-21T00:46:10.873Z,16.54
2018-09-21T00:47:10.900Z,16.58
2018-09-21T00:48:10.913Z,16.57
2018-09-21T00:49:10.939Z,16.58
2018-09-21T00:50:10.951Z,16.57
2018-09-21T00:51:10.979Z,16.51
2018-09-21T00:52:10.991Z,16.55
2018-09-21T00:53:11.018Z,16.50
2018-09-21T00:54:11.044Z,16.47
2018-09-21T00:55:11.056Z,16.43
2018-09-21T00:56:11.095Z,16.43
2018-09-21T00:57:11.096Z,16.47
2018-09-21T00:58:11.123Z,16.47
2018-09-21T00:59:11.152Z,16.54
2018-09-21T01:00:11.161Z,16.44
2018-09-21T01:01:11.188Z,16.41
2018-09-21T01:02:11.202Z,16.49
2018-09-21T01:03:11.237Z,16.39
2018-09-21T01:04:11.241Z,16.29
2018-09-21T01:05:11.267Z,16.40
2018-09-21T01:06:11.294Z,16.34
2018-09-21T01:07:11.306Z,16.39
2018-09-21T01:08:11.333Z,16.34
2018-09-21T01:09:11.347Z,16.34
2018-09-21T01:10:11.387Z,16.31
2018-09-21T01:11:11.386Z,16.34
2018-09-21T01:12:11.412Z,16.36
2018-09-21T01:13:11.427Z,16.34
2018-09-21T01:14:11.451Z,16.37
2018-09-21T01:15:11.476Z,16.36
2018-09-21T01:16:11.491Z,16.40
2018-09-21T01:17:11.517Z,16.39
2018-09-21T01:18:11.529Z,16.36
2018-09-21T01:19:11.556Z,16.36
2018-09-21T01:20:11.569Z,16.44
2018-09-21T01:21:11.596Z,16.37
2018-09-21T01:22:11.621Z,16.39
2018-09-21T01:23:11.634Z,16.39
2018-09-21T01:24:11.661Z,16.34
2018-09-21T01:25:11.680Z,16.31
2018-09-21T01:26:11.702Z,16.32
2018-09-21T01:27:11.729Z,16.36
2018-09-21T01:28:11.739Z,16.34
2018-09-21T01:29:11.766Z,16.37
2018-09-21T01:30:11.780Z,16.29
2018-09-21T01:31:11.811Z,16.39
2018-09-21T01:32:11.819Z,16.41
2018-09-21T01:33:11.846Z,16.39
2018-09-21T01:34:11.859Z,16.41
2018-09-21T01:35:11.885Z,16.34
2018-09-21T01:36:11.911Z,16.39
2018-09-21T01:37:11.923Z,16.32
2018-09-21T01:38:11.963Z,16.46
2018-09-21T01:39:11.966Z,16.43
2018-09-21T01:40:11.992Z,16.36
2018-09-21T01:41:12.003Z,16.44
2018-09-21T01:42:12.028Z,16.44
2018-09-21T01:43:12.054Z,16.44
2018-09-21T01:44:12.068Z,16.39
2018-09-21T01:45:12.095Z,16.43
2018-09-21T01:46:12.107Z,16.47
2018-09-21T01:47:12.134Z,16.40
2018-09-21T01:48:12.148Z,16.47
2018-09-21T01:49:12.178Z,16.47
2018-09-21T01:50:12.199Z,16.55
2018-09-21T01:51:12.212Z,16.44
2018-09-21T01:52:12.238Z,16.41
2018-09-21T01:53:12.252Z,16.44
2018-09-21T01:54:12.279Z,16.43
2018-09-21T01:55:12.292Z,16.46
2018-09-21T01:56:12.317Z,16.43
2018-09-21T01:57:12.343Z,16.43
2018-09-21T01:58:12.360Z,16.40
2018-09-21T01:59:12.383Z,16.46
2018-09-21T02:00:12.397Z,16.44
2018-09-21T02:01:12.422Z,16.47
2018-09-21T02:02:12.439Z,16.49
2018-09-21T02:03:12.462Z,16.50
2018-09-21T02:04:12.477Z,16.49
2018-09-21T02:05:12.501Z,16.50
2018-09-21T02:06:12.527Z,16.49
2018-09-21T02:07:12.542Z,16.43
2018-09-21T02:08:12.567Z,16.44
2018-09-21T02:09:12.581Z,16.51
2018-09-21T02:10:12.607Z,16.44
2018-09-21T02:11:12.632Z,16.46
2018-09-21T02:12:12.647Z,16.47
2018-09-21T02:13:12.672Z,16.57
2018-09-21T02:14:12.685Z,16.51
2018-09-21T02:15:12.711Z,16.44
2018-09-21T02:16:12.725Z,16.50
2018-09-21T02:17:12.756Z,16.51
2018-09-21T02:18:12.765Z,16.43
2018-09-21T02:19:12.803Z,16.47
2018-09-21T02:20:12.816Z,16.46
2018-09-21T02:21:12.830Z,16.51
2018-09-21T02:22:12.859Z,16.55
2018-09-21T02:23:12.869Z,16.50
2018-09-21T02:24:12.895Z,16.55
2018-09-21T02:25:12.921Z,16.50
2018-09-21T02:26:12.936Z,16.55
2018-09-21T02:27:12.961Z,16.50
2018-09-21T02:28:12.974Z,16.43
2018-09-21T02:29:13.000Z,16.51
2018-09-21T02:30:13.014Z,16.49
2018-09-21T02:31:13.044Z,16.49
2018-09-21T02:32:13.055Z,16.54
2018-09-21T02:33:13.079Z,16.43
2018-09-21T02:34:13.105Z,16.47
2018-09-21T02:35:13.122Z,16.47
2018-09-21T02:36:13.146Z,16.43
2018-09-21T02:37:13.163Z,16.43
2018-09-21T02:38:13.184Z,16.50
2018-09-21T02:39:13.214Z,16.44
2018-09-21T02:40:13.227Z,16.50
2018-09-21T02:41:13.248Z,16.49
2018-09-21T02:42:13.265Z,16.44
2018-09-21T02:43:13.293Z,16.40
2018-09-21T02:44:13.304Z,16.46
2018-09-21T02:45:13.334Z,16.40
2018-09-21T02:46:13.352Z,16.50
2018-09-21T02:47:13.368Z,16.47
2018-09-21T02:48:13.382Z,16.43
2018-09-21T02:49:13.408Z,16.47
2018-09-21T02:50:13.434Z,16.47
2018-09-21T02:51:13.454Z,16.50
2018-09-21T02:52:13.474Z,16.43
2018-09-21T02:53:13.499Z,16.44
2018-09-21T02:54:13.518Z,16.43
2018-09-21T02:55:13.528Z,16.46
2018-09-21T02:56:13.553Z,16.39
2018-09-21T02:57:13.579Z,16.47
2018-09-21T02:58:13.592Z,16.46
2018-09-21T02:59:13.621Z,16.51
2018-09-21T03:00:13.675Z,16.47
2018-09-21T03:01:13.657Z,16.50
2018-09-21T03:02:13.671Z,16.46
2018-09-21T03:03:13.699Z,16.55
2018-09-21T03:04:13.711Z,16.50
2018-09-21T03:05:13.737Z,16.40
2018-09-21T03:06:13.762Z,16.44
2018-09-21T03:07:13.787Z,16.47
2018-09-21T03:08:13.803Z,16.46
2018-09-21T03:09:13.815Z,16.51
2018-09-21T03:10:13.842Z,16.41
2018-09-21T03:11:13.889Z,16.46
2018-09-21T03:12:13.881Z,16.46
2018-09-21T03:13:14.002Z,16.44
2018-09-21T03:14:13.921Z,16.41
2018-09-21T03:15:13.946Z,16.47
2018-09-21T03:16:13.960Z,16.47
2018-09-21T03:17:13.985Z,16.41
2018-09-21T03:18:13.999Z,16.46
2018-09-21T03:19:14.025Z,16.41
2018-09-21T03:20:14.040Z,16.47
2018-09-21T03:21:14.068Z,16.44
2018-09-21T03:22:14.091Z,16.46
2018-09-21T03:23:14.106Z,16.44
2018-09-21T03:24:14.129Z,16.46
2018-09-21T03:25:14.147Z,16.46
2018-09-21T03:26:14.170Z,16.46
2018-09-21T03:27:14.185Z,16.44
2018-09-21T03:28:14.210Z,16.46
2018-09-21T03:29:14.235Z,16.46
2018-09-21T03:30:14.249Z,16.51
2018-09-21T03:31:14.274Z,16.46
2018-09-21T03:32:14.288Z,16.46
2018-09-21T03:33:14.319Z,16.44
2018-09-21T03:34:14.328Z,16.51
2018-09-21T03:35:14.404Z,16.40
2018-09-21T03:36:14.373Z,16.44
2018-09-21T03:37:14.394Z,16.39
2018-09-21T03:38:14.419Z,16.43
2018-09-21T03:39:14.437Z,16.44
2018-09-21T03:40:14.460Z,16.49
2018-09-21T03:41:14.472Z,16.44
2018-09-21T03:42:14.500Z,16.44
2018-09-21T03:43:14.524Z,16.46
2018-09-21T03:44:14.538Z,16.47
2018-09-21T03:45:14.564Z,16.40
2018-09-21T03:46:14.578Z,16.49
2018-09-21T03:47:14.602Z,16.54
2018-09-21T03:48:14.620Z,16.47
2018-09-21T03:49:14.667Z,16.44
2018-09-21T03:50:14.656Z,16.44
2018-09-21T03:51:14.684Z,16.47
2018-09-21T03:52:14.708Z,16.40
2018-09-21T03:53:14.722Z,16.46
2018-09-21T03:54:14.752Z,16.43
2018-09-21T03:55:14.765Z,16.49
2018-09-21T03:56:14.786Z,16.44
2018-09-21T03:57:14.808Z,16.51
2018-09-21T03:58:14.827Z,16.46
2018-09-21T03:59:14.857Z,16.41
2018-09-21T04:00:14.865Z,16.44
2018-09-21T04:01:14.923Z,16.44
2018-09-21T04:02:14.906Z,16.43
2018-09-21T04:03:14.931Z,16.46
2018-09-21T04:04:14.944Z,16.41
2018-09-21T04:05:14.971Z,16.43
2018-09-21T04:06:14.998Z,16.50
2018-09-21T04:07:15.011Z,16.51
2018-09-21T04:08:15.036Z,16.57
2018-09-21T04:09:15.048Z,16.40
2018-09-21T04:10:15.075Z,16.54
2018-09-21T04:11:15.090Z,16.57
2018-09-21T04:12:15.115Z,16.51
2018-09-21T04:13:15.129Z,16.54
2018-09-21T04:14:15.160Z,16.58
2018-09-21T04:15:15.182Z,16.54
2018-09-21T04:16:15.194Z,16.58
2018-09-21T04:17:15.220Z,16.57
2018-09-21T04:18:15.233Z,16.55
2018-09-21T04:19:15.264Z,16.59
2018-09-21T04:20:15.273Z,16.55
2018-09-21T04:21:15.299Z,16.58
2018-09-21T04:22:15.330Z,16.54
2018-09-21T04:23:15.338Z,16.61
2018-09-21T04:24:15.365Z,16.61
2018-09-21T04:25:15.378Z,16.57
2018-09-21T04:26:15.404Z,16.64
2018-09-21T04:27:15.418Z,16.61
2018-09-21T04:28:15.443Z,16.61
2018-09-21T04:29:15.457Z,16.61
2018-09-21T04:30:15.489Z,16.65
2018-09-21T04:31:15.509Z,16.64
2018-09-21T04:32:15.521Z,16.66
2018-09-21T04:33:15.555Z,16.66
2018-09-21T04:34:15.562Z,16.66
2018-09-21T04:35:15.588Z,16.64
2018-09-21T04:36:15.673Z,16.64
2018-09-21T04:37:15.627Z,16.64
2018-09-21T04:38:15.652Z,16.65
2018-09-21T04:39:15.666Z,16.59
2018-09-21T04:40:15.693Z,16.68
2018-09-21T04:41:15.706Z,16.59
2018-09-21T04:42:15.733Z,16.73
2018-09-21T04:43:15.745Z,16.72
2018-09-21T04:44:15.774Z,16.65
2018-09-21T04:45:15.803Z,16.72
2018-09-21T04:46:15.811Z,16.68
2018-09-21T04:47:15.837Z,16.74
2018-09-21T04:48:15.851Z,16.69
2018-09-21T04:49:15.877Z,16.72
2018-09-21T04:50:15.902Z,16.77
2018-09-21T04:51:15.916Z,16.76
2018-09-21T04:52:15.944Z,16.77
2018-09-21T04:53:15.955Z,16.82
2018-09-21T04:54:15.985Z,16.79
2018-09-21T04:55:15.994Z,16.77
2018-09-21T04:56:16.021Z,16.83
2018-09-21T04:57:16.034Z,16.87
2018-09-21T04:58:16.061Z,16.89
2018-09-21T04:59:16.088Z,16.86
2018-09-21T05:00:16.099Z,16.87
2018-09-21T05:01:16.125Z,16.87
2018-09-21T05:02:16.139Z,16.89
2018-09-21T05:03:16.166Z,16.91
2018-09-21T05:04:16.191Z,16.98
2018-09-21T05:05:16.204Z,16.98
2018-09-21T05:06:16.231Z,16.99
2018-09-21T05:07:16.245Z,16.99
2018-09-21T05:08:16.270Z,16.98
2018-09-21T05:09:16.287Z,16.94
2018-09-21T05:10:16.322Z,17.01
2018-09-21T05:11:16.336Z,17.04
2018-09-21T05:12:16.349Z,17.04
2018-09-21T05:13:16.376Z,17.05
2018-09-21T05:14:16.393Z,17.13
2018-09-21T05:15:16.421Z,17.16
2018-09-21T05:16:16.429Z,17.12
2018-09-21T05:17:16.455Z,17.17
2018-09-21T05:18:16.481Z,17.31
2018-09-21T05:19:16.507Z,17.31
2018-09-21T05:20:16.522Z,17.28
2018-09-21T05:21:16.534Z,17.28
2018-09-21T05:22:16.560Z,17.38
2018-09-21T05:23:16.586Z,17.44
2018-09-21T05:24:16.599Z,17.37
2018-09-21T05:25:16.625Z,17.41
2018-09-21T05:26:16.638Z,17.59
2018-09-21T05:27:16.666Z,17.60
2018-09-21T05:28:16.692Z,17.52
2018-09-21T05:29:16.704Z,17.50
2018-09-21T05:30:16.729Z,17.63
2018-09-21T05:31:16.744Z,17.56
2018-09-21T05:32:16.769Z,17.60
2018-09-21T05:33:16.799Z,17.65
2018-09-21T05:34:16.820Z,17.79
2018-09-21T05:35:16.892Z,17.76
2018-09-21T05:36:16.859Z,17.73
2018-09-21T05:37:16.873Z,17.79
2018-09-21T05:38:16.900Z,17.84
2018-09-21T05:39:16.913Z,17.91
2018-09-21T05:40:16.938Z,17.93
2018-09-21T05:41:16.964Z,18.02
2018-09-21T05:42:16.978Z,17.97
2018-09-21T05:43:17.004Z,18.13
2018-09-21T05:44:17.030Z,18.12
2018-09-21T05:45:17.043Z,18.23
2018-09-21T05:46:17.068Z,18.28
2018-09-21T05:47:17.095Z,18.28
2018-09-21T05:48:17.108Z,18.23
2018-09-21T05:49:17.135Z,18.33
2018-09-21T05:50:17.160Z,18.41
2018-09-21T05:51:17.173Z,18.49
2018-09-21T05:52:17.198Z,18.49
2018-09-21T05:53:17.226Z,18.60
2018-09-21T05:54:17.239Z,18.70
2018-09-21T05:55:17.266Z,18.63
2018-09-21T05:56:17.355Z,18.73
2018-09-21T05:57:17.302Z,18.82
2018-09-21T05:58:17.331Z,18.85
2018-09-21T05:59:17.356Z,18.91
2018-09-21T06:00:17.369Z,18.98
2018-09-21T06:01:17.394Z,19.05
2018-09-21T06:02:17.461Z,19.09
2018-09-21T06:03:17.447Z,19.15
2018-09-21T06:04:17.459Z,19.23
2018-09-21T06:05:17.484Z,19.30
2018-09-21T06:06:17.511Z,19.26
2018-09-21T06:07:17.536Z,19.38
2018-09-21T06:08:17.550Z,19.32
2018-09-21T06:09:17.577Z,19.47
2018-09-21T06:10:17.603Z,19.53
2018-09-21T06:11:17.615Z,19.57
2018-09-21T06:12:17.640Z,19.59
2018-09-21T06:13:17.680Z,19.64
2018-09-21T06:14:17.692Z,19.66
2018-09-21T06:15:17.706Z,19.77
2018-09-21T06:16:17.731Z,19.81
2018-09-21T06:17:17.758Z,19.92
2018-09-21T06:18:17.788Z,19.99
2018-09-21T06:19:17.827Z,20.03
2018-09-21T06:20:17.837Z,20.12
2018-09-21T06:21:17.871Z,20.10
2018-09-21T06:22:17.872Z,20.22
2018-09-21T06:23:17.888Z,20.21
2018-09-21T06:24:17.913Z,20.32
2018-09-21T06:25:17.939Z,20.42
2018-09-21T06:26:17.965Z,20.42
2018-09-21T06:27:17.979Z,20.52
2018-09-21T06:28:18.003Z,20.46
2018-09-21T06:29:18.029Z,20.64
2018-09-21T06:30:18.068Z,20.64
2018-09-21T06:31:18.081Z,20.75
2018-09-21T06:32:18.095Z,20.77
2018-09-21T06:33:18.120Z,20.80
2018-09-21T06:34:18.150Z,20.96
2018-09-21T06:35:18.172Z,20.93
2018-09-21T06:36:18.198Z,21.05
2018-09-21T06:37:18.211Z,21.14
2018-09-21T06:38:18.236Z,21.26
2018-09-21T06:39:18.262Z,21.25
2018-09-21T06:40:18.289Z,21.22
2018-09-21T06:41:18.315Z,21.37
2018-09-21T06:42:18.352Z,21.40
2018-09-21T06:43:18.383Z,21.44
2018-09-21T06:44:18.379Z,21.47
2018-09-21T06:45:18.405Z,21.54
2018-09-21T06:46:18.430Z,21.62
2018-09-21T06:47:18.460Z,21.70
2018-09-21T06:48:18.482Z,21.78
2018-09-21T06:49:18.508Z,21.83
2018-09-21T06:50:18.520Z,21.91
2018-09-21T06:51:18.546Z,21.92
2018-09-21T06:52:18.572Z,22.04
2018-09-21T06:53:18.598Z,22.07
2018-09-21T06:54:18.624Z,22.19
2018-09-21T06:55:18.649Z,22.18
2018-09-21T06:56:18.681Z,22.22
2018-09-21T06:57:18.703Z,22.23
2018-09-21T06:58:18.714Z,22.40
2018-09-21T06:59:18.740Z,22.37
2018-09-21T07:00:18.767Z,22.53
2018-09-21T07:01:18.854Z,22.41
2018-09-21T07:02:18.844Z,22.56
2018-09-21T07:03:18.844Z,22.52
2018-09-21T07:04:18.869Z,22.65
2018-09-21T07:05:18.894Z,22.65
2018-09-21T07:06:18.924Z,22.78
2018-09-21T07:07:18.935Z,22.77
2018-09-21T07:08:18.959Z,22.92
2018-09-21T07:09:18.989Z,22.91
2018-09-21T07:10:19.012Z,22.95
2018-09-21T07:11:19.037Z,22.93
2018-09-21T07:12:19.064Z,22.98
2018-09-21T07:13:19.090Z,23.01
2018-09-21T07:14:19.128Z,23.13
2018-09-21T07:15:19.141Z,23.06
2018-09-21T07:16:19.166Z,23.17
2018-09-21T07:17:19.193Z,23.17
2018-09-21T07:18:19.217Z,23.21
2018-09-21T07:19:19.243Z,23.23
2018-09-21T07:20:19.257Z,23.25
2018-09-21T07:21:19.283Z,23.39
2018-09-21T07:22:19.311Z,23.42
2018-09-21T07:23:19.337Z,23.36
2018-09-21T07:24:19.359Z,23.39
2018-09-21T07:25:19.386Z,23.48
2018-09-21T07:26:19.412Z,23.45
2018-09-21T07:27:19.438Z,23.47
2018-09-21T07:28:19.463Z,23.45
2018-09-21T07:29:19.489Z,23.48
2018-09-21T07:30:19.516Z,23.48
2018-09-21T07:31:19.561Z,23.51
2018-09-21T07:32:19.566Z,23.52
2018-09-21T07:33:19.592Z,23.51
2018-09-21T07:34:19.622Z,23.52
2018-09-21T07:35:19.645Z,23.56
2018-09-21T07:36:19.669Z,23.51
2018-09-21T07:37:19.720Z,23.49
2018-09-21T07:38:19.708Z,23.54
2018-09-21T07:39:19.735Z,23.47
2018-09-21T07:40:19.760Z,23.51
2018-09-21T07:41:19.785Z,23.54
2018-09-21T07:42:19.811Z,23.54
2018-09-21T07:43:19.837Z,23.54
2018-09-21T07:44:19.869Z,23.45
2018-09-21T07:45:19.903Z,23.47
2018-09-21T07:46:19.914Z,23.49
2018-09-21T07:47:19.942Z,23.47
2018-09-21T07:48:19.966Z,23.45
2018-09-21T07:49:19.991Z,23.40
2018-09-21T07:50:20.018Z,23.48
2018-09-21T07:51:20.031Z,23.47
2018-09-21T07:52:20.058Z,23.49
2018-09-21T07:53:20.087Z,23.54
2018-09-21T07:54:20.115Z,23.44
2018-09-21T07:55:20.134Z,23.54
2018-09-21T07:56:20.159Z,23.52
2018-09-21T07:57:20.185Z,23.56
2018-09-21T07:58:20.212Z,23.64
2018-09-21T07:59:20.237Z,23.64
2018-09-21T08:00:20.265Z,23.76
2018-09-21T08:01:20.289Z,23.71
2018-09-21T08:02:20.315Z,23.77
2018-09-21T08:03:20.341Z,23.86
2018-09-21T08:04:20.355Z,23.92
2018-09-21T08:05:20.380Z,23.88
2018-09-21T08:06:20.408Z,23.94
2018-09-21T08:07:20.459Z,23.94
2018-09-21T08:08:20.455Z,24.07
2018-09-21T08:09:20.483Z,24.11
2018-09-21T08:10:20.507Z,24.14
2018-09-21T08:11:20.533Z,24.13
2018-09-21T08:12:20.559Z,24.28
2018-09-21T08:13:20.585Z,24.25
2018-09-21T08:14:20.614Z,24.29
2018-09-21T08:15:20.636Z,24.26
2018-09-21T08:16:20.677Z,24.37
2018-09-21T08:17:20.689Z,24.38
2018-09-21T08:18:20.712Z,24.48
2018-09-21T08:19:20.744Z,24.43
2018-09-21T08:20:20.767Z,24.53
2018-09-21T08:21:20.793Z,24.53
2018-09-21T08:22:20.832Z,24.58
2018-09-21T08:23:20.843Z,24.59
2018-09-21T08:24:20.868Z,24.66
2018-09-21T08:25:20.894Z,24.69
2018-09-21T08:26:20.920Z,24.74
2018-09-21T08:27:20.946Z,24.69
2018-09-21T08:28:20.971Z,24.77
2018-09-21T08:29:20.997Z,24.79
2018-09-21T08:30:21.022Z,24.81
2018-09-21T08:31:21.071Z,24.89
2018-09-21T08:32:21.062Z,24.77
2018-09-21T08:33:21.114Z,24.88
2018-09-21T08:34:21.116Z,24.94
2018-09-21T08:35:21.140Z,24.94
2018-09-21T08:36:21.165Z,24.93
2018-09-21T08:37:21.223Z,24.99
2018-09-21T08:38:21.217Z,25.07
2018-09-21T08:39:21.247Z,25.04
2018-09-21T08:40:21.268Z,25.07
2018-09-21T08:41:21.298Z,25.14
2018-09-21T08:42:21.319Z,25.15
2018-09-21T08:43:21.346Z,25.21
2018-09-21T08:44:21.371Z,25.24
2018-09-21T08:45:21.435Z,25.18
2018-09-21T08:46:21.423Z,25.30
2018-09-21T08:47:21.449Z,25.31
2018-09-21T08:48:21.479Z,25.40
2018-09-21T08:49:21.500Z,25.40
2018-09-21T08:50:21.526Z,25.40
2018-09-21T08:51:21.552Z,25.44
2018-09-21T08:52:21.577Z,25.37
2018-09-21T08:53:21.602Z,25.54
2018-09-21T08:54:21.634Z,25.52
2018-09-21T08:55:21.655Z,25.59
2018-09-21T08:56:21.684Z,25.51
2018-09-21T08:57:21.706Z,25.61
2018-09-21T08:58:21.981Z,25.63
2018-09-21T08:59:21.758Z,25.68
2018-09-21T09:00:21.785Z,25.78
2018-09-21T09:01:21.808Z,25.66
2018-09-21T09:02:21.834Z,25.63
2018-09-21T09:03:21.872Z,25.76
2018-09-21T09:04:21.897Z,25.74
2018-09-21T09:05:21.912Z,25.83
2018-09-21T09:06:21.939Z,25.83
2018-09-21T09:07:21.964Z,25.85
2018-09-21T09:08:21.989Z,25.85
2018-09-21T09:09:22.016Z,25.85
2018-09-21T09:10:22.052Z,25.85
2018-09-21T09:11:22.093Z,25.89
2018-09-21T09:12:22.092Z,25.92
2018-09-21T09:13:22.130Z,25.92
2018-09-21T09:14:22.158Z,25.96
2018-09-21T09:15:22.182Z,25.95
2018-09-21T09:16:22.206Z,25.98
2018-09-21T09:17:22.234Z,26.06
2018-09-21T09:18:22.258Z,26.07
2018-09-21T09:19:22.284Z,26.11
2018-09-21T09:20:22.327Z,26.10
2018-09-21T09:21:22.336Z,26.26
2018-09-21T09:22:22.361Z,26.23
2018-09-21T09:23:22.388Z,26.22
2018-09-21T09:24:22.414Z,26.23
2018-09-21T09:25:22.439Z,26.30
2018-09-21T09:26:22.492Z,26.37
2018-09-21T09:27:22.490Z,26.27
2018-09-21T09:28:22.515Z,26.39
2018-09-21T09:29:22.542Z,26.49
2018-09-21T09:30:22.581Z,26.51
2018-09-21T09:31:22.611Z,26.49
2018-09-21T09:32:22.619Z,26.59
2018-09-21T09:33:22.647Z,26.61
2018-09-21T09:34:22.670Z,26.61
2018-09-21T09:35:22.698Z,26.67
2018-09-21T09:36:22.722Z,26.74
2018-09-21T09:37:22.748Z,26.83
2018-09-21T09:38:22.774Z,26.67
2018-09-21T09:39:22.813Z,26.92
2018-09-21T09:40:22.838Z,26.86
2018-09-21T09:41:22.864Z,26.98
2018-09-21T09:42:22.889Z,27.05
2018-09-21T09:43:22.969Z,27.13
2018-09-21T09:44:22.941Z,27.19
2018-09-21T09:45:22.969Z,27.29
2018-09-21T09:46:22.993Z,27.44
2018-09-21T09:47:23.018Z,27.35
2018-09-21T09:48:23.144Z,27.38
2018-09-21T09:49:23.071Z,27.52
2018-09-21T09:50:23.107Z,27.58
2018-09-21T09:51:23.134Z,27.72
2018-09-21T09:52:23.159Z,27.67
2018-09-21T09:53:23.198Z,27.79
2018-09-21T09:54:23.212Z,27.78
2018-09-21T09:55:23.236Z,27.82
2018-09-21T09:56:23.262Z,27.90
2018-09-21T09:57:23.300Z,27.94
2018-09-21T09:58:23.327Z,28.00
2018-09-21T09:59:23.353Z,28.04
2018-09-21T10:00:23.381Z,28.15
2018-09-21T10:01:23.403Z,28.12
2018-09-21T10:02:23.429Z,28.27
2018-09-21T10:03:23.540Z,28.33
2018-09-21T10:04:23.494Z,28.37
2018-09-21T10:05:23.522Z,28.41
2018-09-21T10:06:23.548Z,28.52
2018-09-21T10:07:23.587Z,28.56
2018-09-21T10:08:23.608Z,28.59
2018-09-21T10:09:23.634Z,28.62
2018-09-21T10:10:23.719Z,28.60
2018-09-21T10:11:23.687Z,28.64
2018-09-21T10:12:23.712Z,28.71
2018-09-21T10:13:23.749Z,28.74
2018-09-21T10:14:23.775Z,28.82
2018-09-21T10:15:23.801Z,28.86
2018-09-21T10:16:23.843Z,28.92
2018-09-21T10:17:23.865Z,28.90
2018-09-21T10:18:23.891Z,28.97
2018-09-21T10:19:23.917Z,28.97
2018-09-21T10:20:23.943Z,29.02
2018-09-21T10:21:23.982Z,29.03
2018-09-21T10:22:24.007Z,29.06
2018-09-21T10:23:24.031Z,29.03
2018-09-21T10:24:24.077Z,29.12
2018-09-21T10:25:24.098Z,29.18
2018-09-21T10:26:24.122Z,29.21
2018-09-21T10:27:24.168Z,29.32
2018-09-21T10:28:24.316Z,29.27
2018-09-21T10:29:24.212Z,29.34
2018-09-21T10:30:24.240Z,29.44
2018-09-21T10:31:24.263Z,29.42
2018-09-21T10:32:24.288Z,29.47
2018-09-21T10:33:24.337Z,29.58
2018-09-21T10:34:24.353Z,29.52
2018-09-21T10:35:24.395Z,29.61
2018-09-21T10:36:24.430Z,29.61
2018-09-21T10:37:24.444Z,29.57
2018-09-21T10:38:24.468Z,29.68
2018-09-21T10:39:24.495Z,29.67
2018-09-21T10:40:24.590Z,29.71
2018-09-21T10:41:24.576Z,29.65
2018-09-21T10:42:24.675Z,29.77
2018-09-21T10:43:24.621Z,29.73
2018-09-21T10:44:24.647Z,29.74
2018-09-21T10:45:24.672Z,29.67
2018-09-21T10:46:24.712Z,29.83
2018-09-21T10:47:24.741Z,29.79
2018-09-21T10:48:24.763Z,29.89
2018-09-21T10:49:24.789Z,29.90
2018-09-21T10:50:24.826Z,29.90
2018-09-21T10:51:24.853Z,30.05
2018-09-21T10:52:24.878Z,30.06
2018-09-21T10:53:24.916Z,30.11
2018-09-21T10:54:24.943Z,30.17
2018-09-21T10:55:24.968Z,30.20
2018-09-21T10:56:25.006Z,30.14
2018-09-21T10:57:25.032Z,30.20
2018-09-21T10:58:25.057Z,30.16
2018-09-21T10:59:25.095Z,30.29
2018-09-21T11:00:25.147Z,30.31
2018-09-21T11:01:25.147Z,30.29
2018-09-21T11:02:25.198Z,30.31
2018-09-21T11:03:25.210Z,30.27
2018-09-21T11:04:25.236Z,30.33
2018-09-21T11:05:25.263Z,30.33
2018-09-21T11:06:25.300Z,30.36
2018-09-21T11:07:25.327Z,30.32
2018-09-21T11:08:25.353Z,30.32
2018-09-21T11:09:25.390Z,30.43
2018-09-21T11:10:25.416Z,30.38
2018-09-21T11:11:25.442Z,30.35
2018-09-21T11:12:25.480Z,30.39
2018-09-21T11:13:25.508Z,30.35
2018-09-21T11:14:25.535Z,30.40
2018-09-21T11:15:25.571Z,30.33
2018-09-21T11:16:25.595Z,30.40
2018-09-21T11:17:25.620Z,30.35
2018-09-21T11:18:25.659Z,30.38
2018-09-21T11:19:25.685Z,30.46
2018-09-21T11:20:25.714Z,30.36
2018-09-21T11:21:25.748Z,30.46
2018-09-21T11:22:25.775Z,30.44
2018-09-21T11:23:25.799Z,30.54
2018-09-21T11:24:25.839Z,30.54
2018-09-21T11:25:25.865Z,30.56
2018-09-21T11:26:25.891Z,30.58
2018-09-21T11:27:25.929Z,30.59
2018-09-21T11:28:25.954Z,30.71
2018-09-21T11:29:25.980Z,30.63
2018-09-21T11:30:26.019Z,30.73
2018-09-21T11:31:26.045Z,30.78
2018-09-21T11:32:26.070Z,30.81
2018-09-21T11:33:26.096Z,30.98
2018-09-21T11:34:26.133Z,30.98
2018-09-21T11:35:26.159Z,31.08
2018-09-21T11:36:26.185Z,31.15
2018-09-21T11:37:26.224Z,31.07
2018-09-21T11:38:26.251Z,31.17
2018-09-21T11:39:26.287Z,31.28
2018-09-21T11:40:26.314Z,31.32
2018-09-21T11:41:26.339Z,31.36
2018-09-21T11:42:26.377Z,31.42
2018-09-21T11:43:26.407Z,31.54
2018-09-21T11:44:26.429Z,31.57
2018-09-21T11:45:26.467Z,31.51
2018-09-21T11:46:26.510Z,31.64
2018-09-21T11:47:26.690Z,31.72
2018-09-21T11:48:26.557Z,31.73
2018-09-21T11:49:26.584Z,31.73
2018-09-21T11:50:26.620Z,31.78
2018-09-21T11:51:26.659Z,31.78
2018-09-21T11:52:26.672Z,31.87
2018-09-21T11:53:26.715Z,31.90
2018-09-21T11:54:26.736Z,31.82
2018-09-21T11:55:26.775Z,31.82
2018-09-21T11:56:26.801Z,31.85
2018-09-21T11:57:26.827Z,31.87
2018-09-21T11:58:26.864Z,31.81
2018-09-21T11:59:26.891Z,31.90
2018-09-21T12:00:26.929Z,31.82
2018-09-21T12:01:26.955Z,31.85
2018-09-21T12:02:26.980Z,31.87
2018-09-21T12:03:27.019Z,31.85
2018-09-21T12:04:27.045Z,31.82
2018-09-21T12:05:27.083Z,31.74
2018-09-21T12:06:27.108Z,31.70
2018-09-21T12:07:27.148Z,31.69
2018-09-21T12:08:27.175Z,31.66
2018-09-21T12:09:27.199Z,31.62
2018-09-21T12:10:27.281Z,31.57
2018-09-21T12:11:27.262Z,31.51
2018-09-21T12:12:27.288Z,31.39
2018-09-21T12:13:27.315Z,31.44
2018-09-21T12:14:27.353Z,31.48
2018-09-21T12:15:27.380Z,31.42
2018-09-21T12:16:27.405Z,31.42
2018-09-21T12:17:27.443Z,31.32
2018-09-21T12:18:27.469Z,31.36
2018-09-21T12:19:27.496Z,31.29
2018-09-21T12:20:27.534Z,31.41
2018-09-21T12:21:27.559Z,31.44
2018-09-21T12:22:27.597Z,31.36
2018-09-21T12:23:27.637Z,31.50
2018-09-21T12:24:27.654Z,31.42
2018-09-21T12:25:27.691Z,31.48
2018-09-21T12:26:27.713Z,31.41
2018-09-21T12:27:27.739Z,31.48
2018-09-21T12:28:27.777Z,31.54
2018-09-21T12:29:27.803Z,31.55
2018-09-21T12:30:27.947Z,31.52
2018-09-21T12:31:27.869Z,31.59
2018-09-21T12:32:27.895Z,31.52
2018-09-21T12:33:27.931Z,31.55
2018-09-21T12:34:27.957Z,31.54
2018-09-21T12:35:27.983Z,31.52
2018-09-21T12:36:28.099Z,31.41
2018-09-21T12:37:28.052Z,31.39
2018-09-21T12:38:28.119Z,31.37
2018-09-21T12:39:28.113Z,31.44
2018-09-21T12:40:28.140Z,31.37
2018-09-21T12:41:28.163Z,31.28
2018-09-21T12:42:28.245Z,31.29
2018-09-21T12:43:28.227Z,31.23
2018-09-21T12:44:28.302Z,31.18
2018-09-21T12:45:28.292Z,31.07
2018-09-21T12:46:28.317Z,31.05
2018-09-21T12:47:28.355Z,31.10
2018-09-21T12:48:28.380Z,31.00
2018-09-21T12:49:28.408Z,31.05
2018-09-21T12:50:28.500Z,30.99
2018-09-21T12:51:28.470Z,30.93
2018-09-21T12:52:28.497Z,30.91